sensor_id;sensor_type;location;lat;lon;timestamp;P1;durP1;ratioP1;P2;durP2;ratioP2
33104;SDS011;19476;51.448;6.674;2023-12-04T00:00:25;18.42;;;9.15;;
33104;SDS011;19476;51.448;6.674;2023-12-04T00:02:51;17.95;;;8.75;;
33104;SDS011;19476;51.448;6.674;2023-12-04T00:05:17;18.75;;;9.43;;
33104;SDS011;19476;51.448;6.674;2023-12-04T00:07:42;21.67;;;9.63;;
33104;SDS011;19476;51.448;6.674;2023-12-04T00:10:08;19.13;;;10.25;;
33104;SDS011;19476;51.448;6.674;2023-12-04T00:12:34;18.70;;;9.80;;
33104;SDS011;19476;51.448;6.674;2023-12-04T00:15:00;19.25;;;9.20;;
33104;SDS011;19476;51.448;6.674;2023-12-04T00:17:25;15.68;;;8.25;;
33104;SDS011;19476;51.448;6.674;2023-12-04T00:19:51;17.23;;;8.88;;
33104;SDS011;19476;51.448;6.674;2023-12-04T00:22:17;17.10;;;8.80;;
33104;SDS011;19476;51.448;6.674;2023-12-04T00:24:43;18.58;;;9.05;;
33104;SDS011;19476;51.448;6.674;2023-12-04T00:27:08;17.77;;;9.30;;
33104;SDS011;19476;51.448;6.674;2023-12-04T00:29:35;15.77;;;8.45;;
33104;SDS011;19476;51.448;6.674;2023-12-04T00:32:01;17.80;;;8.38;;
33104;SDS011;19476;51.448;6.674;2023-12-04T00:34:26;16.55;;;8.77;;
33104;SDS011;19476;51.448;6.674;2023-12-04T00:36:52;17.55;;;9.00;;
33104;SDS011;19476;51.448;6.674;2023-12-04T00:39:18;16.85;;;8.65;;
33104;SDS011;19476;51.448;6.674;2023-12-04T00:41:44;16.95;;;8.70;;
33104;SDS011;19476;51.448;6.674;2023-12-04T00:44:09;18.02;;;9.60;;
33104;SDS011;19476;51.448;6.674;2023-12-04T00:46:35;17.35;;;8.20;;
33104;SDS011;19476;51.448;6.674;2023-12-04T00:49:01;14.98;;;8.23;;
33104;SDS011;19476;51.448;6.674;2023-12-04T00:51:26;15.77;;;8.73;;
33104;SDS011;19476;51.448;6.674;2023-12-04T00:53:52;24.38;;;9.82;;
33104;SDS011;19476;51.448;6.674;2023-12-04T00:56:18;16.48;;;7.88;;
33104;SDS011;19476;51.448;6.674;2023-12-04T00:58:45;15.40;;;8.57;;
33104;SDS011;19476;51.448;6.674;2023-12-04T01:01:11;16.58;;;8.02;;
33104;SDS011;19476;51.448;6.674;2023-12-04T01:03:37;15.00;;;7.90;;
33104;SDS011;19476;51.448;6.674;2023-12-04T01:06:03;16.13;;;8.07;;
33104;SDS011;19476;51.448;6.674;2023-12-04T01:08:29;15.05;;;8.20;;
33104;SDS011;19476;51.448;6.674;2023-12-04T01:10:55;15.30;;;7.90;;
33104;SDS011;19476;51.448;6.674;2023-12-04T01:13:20;16.35;;;8.32;;
33104;SDS011;19476;51.448;6.674;2023-12-04T01:15:48;13.35;;;7.10;;
33104;SDS011;19476;51.448;6.674;2023-12-04T01:18:14;14.27;;;7.65;;
33104;SDS011;19476;51.448;6.674;2023-12-04T01:20:40;16.05;;;7.85;;
33104;SDS011;19476;51.448;6.674;2023-12-04T01:23:06;15.18;;;7.15;;
33104;SDS011;19476;51.448;6.674;2023-12-04T01:25:32;14.48;;;7.50;;
33104;SDS011;19476;51.448;6.674;2023-12-04T01:27:57;13.57;;;7.18;;
33104;SDS011;19476;51.448;6.674;2023-12-04T01:30:23;17.20;;;8.02;;
33104;SDS011;19476;51.448;6.674;2023-12-04T01:32:49;13.65;;;7.60;;
33104;SDS011;19476;51.448;6.674;2023-12-04T01:35:15;14.20;;;7.85;;
33104;SDS011;19476;51.448;6.674;2023-12-04T01:37:41;16.38;;;7.70;;
33104;SDS011;19476;51.448;6.674;2023-12-04T01:40:06;13.18;;;7.30;;
33104;SDS011;19476;51.448;6.674;2023-12-04T01:42:33;14.02;;;7.30;;
33104;SDS011;19476;51.448;6.674;2023-12-04T01:44:58;14.68;;;7.65;;
33104;SDS011;19476;51.448;6.674;2023-12-04T01:47:24;13.95;;;6.90;;
33104;SDS011;19476;51.448;6.674;2023-12-04T01:49:50;13.32;;;6.50;;
33104;SDS011;19476;51.448;6.674;2023-12-04T01:52:17;13.70;;;6.70;;
33104;SDS011;19476;51.448;6.674;2023-12-04T01:54:43;12.77;;;7.13;;
33104;SDS011;19476;51.448;6.674;2023-12-04T01:57:09;13.23;;;6.70;;
33104;SDS011;19476;51.448;6.674;2023-12-04T01:59:35;11.27;;;6.32;;
33104;SDS011;19476;51.448;6.674;2023-12-04T02:02:01;13.32;;;6.55;;
33104;SDS011;19476;51.448;6.674;2023-12-04T02:04:27;12.88;;;6.57;;
33104;SDS011;19476;51.448;6.674;2023-12-04T02:06:54;11.77;;;6.22;;
33104;SDS011;19476;51.448;6.674;2023-12-04T02:09:20;11.80;;;6.00;;
33104;SDS011;19476;51.448;6.674;2023-12-04T02:11:45;11.60;;;6.20;;
33104;SDS011;19476;51.448;6.674;2023-12-04T02:14:11;11.77;;;6.50;;
33104;SDS011;19476;51.448;6.674;2023-12-04T02:16:41;14.48;;;6.13;;
33104;SDS011;19476;51.448;6.674;2023-12-04T02:19:08;11.00;;;5.93;;
33104;SDS011;19476;51.448;6.674;2023-12-04T02:21:38;12.15;;;6.22;;
33104;SDS011;19476;51.448;6.674;2023-12-04T02:24:03;11.23;;;5.95;;
33104;SDS011;19476;51.448;6.674;2023-12-04T02:26:31;12.57;;;6.35;;
33104;SDS011;19476;51.448;6.674;2023-12-04T02:29:01;11.27;;;6.22;;
33104;SDS011;19476;51.448;6.674;2023-12-04T02:31:32;11.10;;;6.53;;
33104;SDS011;19476;51.448;6.674;2023-12-04T02:33:59;10.63;;;5.45;;
33104;SDS011;19476;51.448;6.674;2023-12-04T02:36:27;11.73;;;6.00;;
33104;SDS011;19476;51.448;6.674;2023-12-04T02:38:54;12.70;;;6.30;;
33104;SDS011;19476;51.448;6.674;2023-12-04T02:41:20;11.93;;;6.10;;
33104;SDS011;19476;51.448;6.674;2023-12-04T02:43:46;10.82;;;5.78;;
33104;SDS011;19476;51.448;6.674;2023-12-04T02:46:11;12.27;;;6.38;;
33104;SDS011;19476;51.448;6.674;2023-12-04T02:48:37;12.43;;;6.68;;
33104;SDS011;19476;51.448;6.674;2023-12-04T02:51:03;11.20;;;6.00;;
33104;SDS011;19476;51.448;6.674;2023-12-04T02:53:29;10.93;;;5.70;;
33104;SDS011;19476;51.448;6.674;2023-12-04T02:55:55;12.45;;;5.55;;
33104;SDS011;19476;51.448;6.674;2023-12-04T02:58:21;12.15;;;7.18;;
33104;SDS011;19476;51.448;6.674;2023-12-04T03:00:46;13.00;;;6.30;;
33104;SDS011;19476;51.448;6.674;2023-12-04T03:03:12;12.52;;;6.40;;
33104;SDS011;19476;51.448;6.674;2023-12-04T03:05:38;11.65;;;6.10;;
33104;SDS011;19476;51.448;6.674;2023-12-04T03:08:04;12.05;;;5.75;;
33104;SDS011;19476;51.448;6.674;2023-12-04T03:10:29;12.05;;;6.63;;
33104;SDS011;19476;51.448;6.674;2023-12-04T03:12:55;10.98;;;5.72;;
33104;SDS011;19476;51.448;6.674;2023-12-04T03:15:21;10.80;;;5.65;;
33104;SDS011;19476;51.448;6.674;2023-12-04T03:17:46;10.73;;;5.70;;
33104;SDS011;19476;51.448;6.674;2023-12-04T03:20:12;10.43;;;5.68;;
33104;SDS011;19476;51.448;6.674;2023-12-04T03:22:38;12.02;;;6.28;;
33104;SDS011;19476;51.448;6.674;2023-12-04T03:25:03;11.68;;;5.72;;
33104;SDS011;19476;51.448;6.674;2023-12-04T03:27:30;10.00;;;5.78;;
33104;SDS011;19476;51.448;6.674;2023-12-04T03:29:56;10.20;;;5.97;;
33104;SDS011;19476;51.448;6.674;2023-12-04T03:32:21;9.35;;;5.00;;
33104;SDS011;19476;51.448;6.674;2023-12-04T03:34:47;11.27;;;5.90;;
33104;SDS011;19476;51.448;6.674;2023-12-04T03:37:13;11.85;;;5.32;;
33104;SDS011;19476;51.448;6.674;2023-12-04T03:39:38;10.02;;;5.32;;
33104;SDS011;19476;51.448;6.674;2023-12-04T03:42:04;10.85;;;5.82;;
33104;SDS011;19476;51.448;6.674;2023-12-04T03:44:30;10.70;;;5.47;;
33104;SDS011;19476;51.448;6.674;2023-12-04T03:46:55;12.13;;;5.70;;
33104;SDS011;19476;51.448;6.674;2023-12-04T03:49:21;9.75;;;5.10;;
33104;SDS011;19476;51.448;6.674;2023-12-04T03:51:47;11.07;;;5.28;;
33104;SDS011;19476;51.448;6.674;2023-12-04T03:54:12;10.38;;;5.00;;
33104;SDS011;19476;51.448;6.674;2023-12-04T03:56:39;10.60;;;5.40;;
33104;SDS011;19476;51.448;6.674;2023-12-04T03:59:05;10.20;;;5.53;;
33104;SDS011;19476;51.448;6.674;2023-12-04T04:01:31;8.82;;;4.72;;
33104;SDS011;19476;51.448;6.674;2023-12-04T04:03:57;10.98;;;5.68;;
33104;SDS011;19476;51.448;6.674;2023-12-04T04:06:22;9.93;;;5.28;;
33104;SDS011;19476;51.448;6.674;2023-12-04T04:08:48;10.25;;;5.15;;
33104;SDS011;19476;51.448;6.674;2023-12-04T04:11:13;10.02;;;5.38;;
33104;SDS011;19476;51.448;6.674;2023-12-04T04:13:40;9.57;;;5.10;;
33104;SDS011;19476;51.448;6.674;2023-12-04T04:16:06;11.00;;;4.90;;
33104;SDS011;19476;51.448;6.674;2023-12-04T04:18:32;10.40;;;5.20;;
33104;SDS011;19476;51.448;6.674;2023-12-04T04:20:57;9.85;;;5.10;;
33104;SDS011;19476;51.448;6.674;2023-12-04T04:23:23;10.32;;;5.40;;
33104;SDS011;19476;51.448;6.674;2023-12-04T04:25:49;10.73;;;5.20;;
33104;SDS011;19476;51.448;6.674;2023-12-04T04:28:14;9.75;;;4.97;;
33104;SDS011;19476;51.448;6.674;2023-12-04T04:30:40;10.18;;;5.15;;
33104;SDS011;19476;51.448;6.674;2023-12-04T04:33:06;9.63;;;5.45;;
33104;SDS011;19476;51.448;6.674;2023-12-04T04:35:32;11.02;;;5.25;;
33104;SDS011;19476;51.448;6.674;2023-12-04T04:37:57;9.55;;;5.00;;
33104;SDS011;19476;51.448;6.674;2023-12-04T04:40:23;9.13;;;4.97;;
33104;SDS011;19476;51.448;6.674;2023-12-04T04:42:49;10.30;;;4.93;;
33104;SDS011;19476;51.448;6.674;2023-12-04T04:45:14;9.23;;;4.53;;
33104;SDS011;19476;51.448;6.674;2023-12-04T04:47:40;9.45;;;4.95;;
33104;SDS011;19476;51.448;6.674;2023-12-04T04:50:06;10.13;;;4.90;;
33104;SDS011;19476;51.448;6.674;2023-12-04T04:52:32;9.43;;;4.68;;
33104;SDS011;19476;51.448;6.674;2023-12-04T04:54:58;9.05;;;4.70;;
33104;SDS011;19476;51.448;6.674;2023-12-04T04:57:23;9.73;;;5.00;;
33104;SDS011;19476;51.448;6.674;2023-12-04T04:59:49;8.77;;;4.55;;
33104;SDS011;19476;51.448;6.674;2023-12-04T05:02:14;9.40;;;4.60;;
33104;SDS011;19476;51.448;6.674;2023-12-04T05:04:40;10.18;;;4.90;;
33104;SDS011;19476;51.448;6.674;2023-12-04T05:07:06;9.40;;;4.70;;
33104;SDS011;19476;51.448;6.674;2023-12-04T05:09:32;10.05;;;5.10;;
33104;SDS011;19476;51.448;6.674;2023-12-04T05:11:57;9.75;;;4.70;;
33104;SDS011;19476;51.448;6.674;2023-12-04T05:14:23;9.20;;;4.97;;
33104;SDS011;19476;51.448;6.674;2023-12-04T05:16:49;10.20;;;5.15;;
33104;SDS011;19476;51.448;6.674;2023-12-04T05:19:14;11.05;;;5.40;;
33104;SDS011;19476;51.448;6.674;2023-12-04T05:21:40;10.10;;;5.65;;
33104;SDS011;19476;51.448;6.674;2023-12-04T05:24:06;9.80;;;4.80;;
33104;SDS011;19476;51.448;6.674;2023-12-04T05:26:32;9.13;;;4.82;;
33104;SDS011;19476;51.448;6.674;2023-12-04T05:28:58;11.38;;;5.57;;
33104;SDS011;19476;51.448;6.674;2023-12-04T05:31:23;8.82;;;5.07;;
33104;SDS011;19476;51.448;6.674;2023-12-04T05:33:49;10.10;;;5.38;;
33104;SDS011;19476;51.448;6.674;2023-12-04T05:36:15;10.40;;;5.10;;
33104;SDS011;19476;51.448;6.674;2023-12-04T05:38:40;9.38;;;5.22;;
33104;SDS011;19476;51.448;6.674;2023-12-04T05:41:06;9.95;;;5.50;;
33104;SDS011;19476;51.448;6.674;2023-12-04T05:43:32;10.27;;;5.10;;
33104;SDS011;19476;51.448;6.674;2023-12-04T05:45:57;8.68;;;4.40;;
33104;SDS011;19476;51.448;6.674;2023-12-04T05:48:23;9.32;;;5.10;;
33104;SDS011;19476;51.448;6.674;2023-12-04T05:50:48;11.15;;;5.10;;
33104;SDS011;19476;51.448;6.674;2023-12-04T05:53:14;10.65;;;5.35;;
33104;SDS011;19476;51.448;6.674;2023-12-04T05:55:41;12.32;;;5.90;;
33104;SDS011;19476;51.448;6.674;2023-12-04T05:58:06;10.52;;;5.40;;
33104;SDS011;19476;51.448;6.674;2023-12-04T06:00:32;10.30;;;5.80;;
33104;SDS011;19476;51.448;6.674;2023-12-04T06:02:57;10.68;;;5.50;;
33104;SDS011;19476;51.448;6.674;2023-12-04T06:05:23;11.57;;;5.60;;
33104;SDS011;19476;51.448;6.674;2023-12-04T06:07:49;15.38;;;6.32;;
33104;SDS011;19476;51.448;6.674;2023-12-04T06:10:15;12.60;;;6.20;;
33104;SDS011;19476;51.448;6.674;2023-12-04T06:12:40;11.18;;;6.13;;
33104;SDS011;19476;51.448;6.674;2023-12-04T06:15:06;11.35;;;5.70;;
33104;SDS011;19476;51.448;6.674;2023-12-04T06:17:33;10.93;;;5.72;;
33104;SDS011;19476;51.448;6.674;2023-12-04T06:19:59;11.45;;;6.00;;
33104;SDS011;19476;51.448;6.674;2023-12-04T06:22:24;11.57;;;6.43;;
33104;SDS011;19476;51.448;6.674;2023-12-04T06:24:51;12.30;;;6.63;;
33104;SDS011;19476;51.448;6.674;2023-12-04T06:27:18;12.68;;;6.07;;
33104;SDS011;19476;51.448;6.674;2023-12-04T06:29:47;12.10;;;6.37;;
33104;SDS011;19476;51.448;6.674;2023-12-04T06:32:14;13.25;;;6.28;;
33104;SDS011;19476;51.448;6.674;2023-12-04T06:34:41;12.30;;;6.13;;
33104;SDS011;19476;51.448;6.674;2023-12-04T06:37:10;11.75;;;6.57;;
33104;SDS011;19476;51.448;6.674;2023-12-04T06:39:37;12.10;;;6.10;;
33104;SDS011;19476;51.448;6.674;2023-12-04T06:42:04;11.65;;;6.07;;
33104;SDS011;19476;51.448;6.674;2023-12-04T06:44:32;11.15;;;6.43;;
33104;SDS011;19476;51.448;6.674;2023-12-04T06:46:58;12.75;;;6.45;;
33104;SDS011;19476;51.448;6.674;2023-12-04T06:49:26;14.18;;;6.20;;
33104;SDS011;19476;51.448;6.674;2023-12-04T06:51:55;12.53;;;6.20;;
33104;SDS011;19476;51.448;6.674;2023-12-04T06:54:21;10.88;;;6.18;;
33104;SDS011;19476;51.448;6.674;2023-12-04T06:56:46;12.02;;;6.45;;
33104;SDS011;19476;51.448;6.674;2023-12-04T06:59:12;11.35;;;6.18;;
33104;SDS011;19476;51.448;6.674;2023-12-04T07:01:37;11.38;;;6.35;;
33104;SDS011;19476;51.448;6.674;2023-12-04T07:04:03;11.95;;;6.93;;
33104;SDS011;19476;51.448;6.674;2023-12-04T07:06:40;10.88;;;6.30;;
33104;SDS011;19476;51.448;6.674;2023-12-04T07:09:06;12.98;;;6.28;;
33104;SDS011;19476;51.448;6.674;2023-12-04T07:11:34;14.13;;;6.88;;
33104;SDS011;19476;51.448;6.674;2023-12-04T07:14:00;12.57;;;6.57;;
33104;SDS011;19476;51.448;6.674;2023-12-04T07:16:26;12.50;;;7.13;;
33104;SDS011;19476;51.448;6.674;2023-12-04T07:18:51;13.18;;;6.57;;
33104;SDS011;19476;51.448;6.674;2023-12-04T07:21:17;11.60;;;6.20;;
33104;SDS011;19476;51.448;6.674;2023-12-04T07:23:43;13.38;;;6.28;;
33104;SDS011;19476;51.448;6.674;2023-12-04T07:26:09;12.82;;;6.72;;
33104;SDS011;19476;51.448;6.674;2023-12-04T07:28:34;12.68;;;6.88;;
33104;SDS011;19476;51.448;6.674;2023-12-04T07:31:00;11.57;;;6.32;;
33104;SDS011;19476;51.448;6.674;2023-12-04T07:33:29;12.73;;;7.07;;
33104;SDS011;19476;51.448;6.674;2023-12-04T07:35:54;13.80;;;7.05;;
33104;SDS011;19476;51.448;6.674;2023-12-04T07:38:20;12.10;;;7.03;;
33104;SDS011;19476;51.448;6.674;2023-12-04T07:40:46;13.07;;;6.90;;
33104;SDS011;19476;51.448;6.674;2023-12-04T07:43:12;12.60;;;7.15;;
33104;SDS011;19476;51.448;6.674;2023-12-04T07:45:39;12.13;;;6.38;;
33104;SDS011;19476;51.448;6.674;2023-12-04T07:48:06;14.88;;;6.88;;
33104;SDS011;19476;51.448;6.674;2023-12-04T07:50:32;12.00;;;6.10;;
33104;SDS011;19476;51.448;6.674;2023-12-04T07:52:58;12.40;;;6.32;;
33104;SDS011;19476;51.448;6.674;2023-12-04T07:55:24;11.63;;;6.15;;
33104;SDS011;19476;51.448;6.674;2023-12-04T07:57:49;11.95;;;6.53;;
33104;SDS011;19476;51.448;6.674;2023-12-04T08:00:16;13.07;;;6.32;;
33104;SDS011;19476;51.448;6.674;2023-12-04T08:02:47;12.05;;;6.30;;
33104;SDS011;19476;51.448;6.674;2023-12-04T08:05:13;13.57;;;7.07;;
33104;SDS011;19476;51.448;6.674;2023-12-04T08:07:39;12.45;;;6.78;;
33104;SDS011;19476;51.448;6.674;2023-12-04T08:10:05;12.68;;;7.40;;
33104;SDS011;19476;51.448;6.674;2023-12-04T08:12:31;11.65;;;6.60;;
33104;SDS011;19476;51.448;6.674;2023-12-04T08:14:58;13.15;;;6.30;;
33104;SDS011;19476;51.448;6.674;2023-12-04T08:17:25;11.43;;;6.35;;
33104;SDS011;19476;51.448;6.674;2023-12-04T08:19:50;13.25;;;6.68;;
33104;SDS011;19476;51.448;6.674;2023-12-04T08:22:16;12.93;;;7.13;;
33104;SDS011;19476;51.448;6.674;2023-12-04T08:24:42;11.88;;;6.68;;
33104;SDS011;19476;51.448;6.674;2023-12-04T08:27:07;12.57;;;6.78;;
33104;SDS011;19476;51.448;6.674;2023-12-04T08:29:33;12.15;;;6.80;;
33104;SDS011;19476;51.448;6.674;2023-12-04T08:31:59;11.05;;;5.78;;
33104;SDS011;19476;51.448;6.674;2023-12-04T08:34:25;12.85;;;6.95;;
33104;SDS011;19476;51.448;6.674;2023-12-04T08:36:51;11.32;;;5.82;;
33104;SDS011;19476;51.448;6.674;2023-12-04T08:39:17;11.52;;;6.40;;
33104;SDS011;19476;51.448;6.674;2023-12-04T08:41:45;10.05;;;4.80;;
33104;SDS011;19476;51.448;6.674;2023-12-04T08:44:13;11.02;;;5.60;;
33104;SDS011;19476;51.448;6.674;2023-12-04T08:46:39;10.80;;;6.00;;
33104;SDS011;19476;51.448;6.674;2023-12-04T08:49:05;10.40;;;5.30;;
33104;SDS011;19476;51.448;6.674;2023-12-04T08:51:30;9.43;;;5.40;;
33104;SDS011;19476;51.448;6.674;2023-12-04T08:53:56;9.50;;;5.07;;
33104;SDS011;19476;51.448;6.674;2023-12-04T08:56:22;10.23;;;5.70;;
33104;SDS011;19476;51.448;6.674;2023-12-04T08:58:48;9.88;;;5.43;;
33104;SDS011;19476;51.448;6.674;2023-12-04T09:01:15;10.48;;;5.43;;
33104;SDS011;19476;51.448;6.674;2023-12-04T09:03:41;11.45;;;5.40;;
33104;SDS011;19476;51.448;6.674;2023-12-04T09:06:07;9.00;;;5.00;;
33104;SDS011;19476;51.448;6.674;2023-12-04T09:08:33;9.18;;;4.90;;
33104;SDS011;19476;51.448;6.674;2023-12-04T09:10:59;8.43;;;4.20;;
33104;SDS011;19476;51.448;6.674;2023-12-04T09:13:25;10.00;;;4.50;;
33104;SDS011;19476;51.448;6.674;2023-12-04T09:15:51;9.85;;;4.90;;
33104;SDS011;19476;51.448;6.674;2023-12-04T09:18:17;9.18;;;4.75;;
33104;SDS011;19476;51.448;6.674;2023-12-04T09:20:43;8.95;;;4.10;;
33104;SDS011;19476;51.448;6.674;2023-12-04T09:23:09;9.45;;;4.95;;
33104;SDS011;19476;51.448;6.674;2023-12-04T09:25:35;9.30;;;4.38;;
33104;SDS011;19476;51.448;6.674;2023-12-04T09:28:01;8.45;;;4.40;;
33104;SDS011;19476;51.448;6.674;2023-12-04T09:30:27;9.38;;;4.82;;
33104;SDS011;19476;51.448;6.674;2023-12-04T09:32:53;8.95;;;4.30;;
33104;SDS011;19476;51.448;6.674;2023-12-04T09:35:19;8.02;;;4.30;;
33104;SDS011;19476;51.448;6.674;2023-12-04T09:37:45;8.50;;;4.60;;
33104;SDS011;19476;51.448;6.674;2023-12-04T09:40:11;8.60;;;4.25;;
33104;SDS011;19476;51.448;6.674;2023-12-04T09:42:37;8.07;;;4.43;;
33104;SDS011;19476;51.448;6.674;2023-12-04T09:45:04;8.65;;;4.60;;
33104;SDS011;19476;51.448;6.674;2023-12-04T09:47:33;9.13;;;4.65;;
33104;SDS011;19476;51.448;6.674;2023-12-04T09:49:59;8.88;;;4.78;;
33104;SDS011;19476;51.448;6.674;2023-12-04T09:52:27;8.02;;;4.32;;
33104;SDS011;19476;51.448;6.674;2023-12-04T09:54:52;8.27;;;4.40;;
33104;SDS011;19476;51.448;6.674;2023-12-04T09:57:18;8.93;;;4.95;;
33104;SDS011;19476;51.448;6.674;2023-12-04T09:59:46;7.53;;;4.32;;
33104;SDS011;19476;51.448;6.674;2023-12-04T10:02:13;11.20;;;5.75;;
33104;SDS011;19476;51.448;6.674;2023-12-04T10:04:39;8.93;;;4.63;;
33104;SDS011;19476;51.448;6.674;2023-12-04T10:07:07;9.50;;;4.60;;
33104;SDS011;19476;51.448;6.674;2023-12-04T10:09:33;7.72;;;4.43;;
33104;SDS011;19476;51.448;6.674;2023-12-04T10:11:59;10.30;;;5.93;;
33104;SDS011;19476;51.448;6.674;2023-12-04T10:14:25;8.70;;;4.40;;
33104;SDS011;19476;51.448;6.674;2023-12-04T10:16:50;8.68;;;4.25;;
33104;SDS011;19476;51.448;6.674;2023-12-04T10:19:24;9.70;;;4.70;;
33104;SDS011;19476;51.448;6.674;2023-12-04T10:21:51;8.05;;;4.20;;
33104;SDS011;19476;51.448;6.674;2023-12-04T10:24:31;8.45;;;4.28;;
33104;SDS011;19476;51.448;6.674;2023-12-04T10:27:00;7.75;;;3.47;;
33104;SDS011;19476;51.448;6.674;2023-12-04T10:29:45;8.10;;;4.28;;
33104;SDS011;19476;51.448;6.674;2023-12-04T10:32:13;7.05;;;3.72;;
33104;SDS011;19476;51.448;6.674;2023-12-04T10:34:43;9.02;;;4.15;;
33104;SDS011;19476;51.448;6.674;2023-12-04T10:37:08;8.48;;;4.53;;
33104;SDS011;19476;51.448;6.674;2023-12-04T10:39:49;9.10;;;4.70;;
33104;SDS011;19476;51.448;6.674;2023-12-04T10:42:28;8.32;;;4.38;;
33104;SDS011;19476;51.448;6.674;2023-12-04T10:44:55;8.20;;;4.18;;
33104;SDS011;19476;51.448;6.674;2023-12-04T10:47:25;9.32;;;4.57;;
33104;SDS011;19476;51.448;6.674;2023-12-04T10:49:52;9.35;;;4.40;;
33104;SDS011;19476;51.448;6.674;2023-12-04T10:52:18;8.90;;;4.65;;
33104;SDS011;19476;51.448;6.674;2023-12-04T10:54:47;13.38;;;5.40;;
33104;SDS011;19476;51.448;6.674;2023-12-04T10:57:16;9.90;;;4.68;;
33104;SDS011;19476;51.448;6.674;2023-12-04T10:59:48;9.40;;;4.75;;
33104;SDS011;19476;51.448;6.674;2023-12-04T11:02:21;10.10;;;4.88;;
33104;SDS011;19476;51.448;6.674;2023-12-04T11:04:51;8.82;;;4.60;;
33104;SDS011;19476;51.448;6.674;2023-12-04T11:07:20;10.82;;;5.57;;
33104;SDS011;19476;51.448;6.674;2023-12-04T11:09:47;9.15;;;5.00;;
33104;SDS011;19476;51.448;6.674;2023-12-04T11:12:15;9.25;;;5.30;;
33104;SDS011;19476;51.448;6.674;2023-12-04T11:14:48;9.32;;;4.85;;
33104;SDS011;19476;51.448;6.674;2023-12-04T11:17:21;10.23;;;4.70;;
33104;SDS011;19476;51.448;6.674;2023-12-04T11:19:55;8.43;;;4.95;;
33104;SDS011;19476;51.448;6.674;2023-12-04T11:22:25;9.60;;;4.90;;
33104;SDS011;19476;51.448;6.674;2023-12-04T11:24:51;8.68;;;4.82;;
33104;SDS011;19476;51.448;6.674;2023-12-04T11:27:17;8.88;;;4.80;;
33104;SDS011;19476;51.448;6.674;2023-12-04T11:29:44;10.85;;;5.18;;
33104;SDS011;19476;51.448;6.674;2023-12-04T11:32:15;10.60;;;5.55;;
33104;SDS011;19476;51.448;6.674;2023-12-04T11:34:51;10.45;;;5.45;;
33104;SDS011;19476;51.448;6.674;2023-12-04T11:37:21;9.20;;;5.43;;
33104;SDS011;19476;51.448;6.674;2023-12-04T11:39:49;10.43;;;5.20;;
33104;SDS011;19476;51.448;6.674;2023-12-04T11:42:19;9.07;;;4.95;;
33104;SDS011;19476;51.448;6.674;2023-12-04T11:44:48;11.00;;;5.93;;
33104;SDS011;19476;51.448;6.674;2023-12-04T11:47:15;10.77;;;5.93;;
33104;SDS011;19476;51.448;6.674;2023-12-04T11:49:41;10.95;;;5.63;;
33104;SDS011;19476;51.448;6.674;2023-12-04T11:52:06;11.48;;;5.63;;
33104;SDS011;19476;51.448;6.674;2023-12-04T11:57:25;12.27;;;5.65;;
33104;SDS011;19476;51.448;6.674;2023-12-04T11:59:51;11.30;;;5.70;;
33104;SDS011;19476;51.448;6.674;2023-12-04T12:02:17;11.43;;;5.85;;
33104;SDS011;19476;51.448;6.674;2023-12-04T12:04:44;11.27;;;5.93;;
33104;SDS011;19476;51.448;6.674;2023-12-04T12:07:12;10.75;;;6.28;;
33104;SDS011;19476;51.448;6.674;2023-12-04T12:09:39;11.50;;;5.72;;
33104;SDS011;19476;51.448;6.674;2023-12-04T12:12:06;11.80;;;6.53;;
33104;SDS011;19476;51.448;6.674;2023-12-04T12:14:32;12.15;;;6.10;;
33104;SDS011;19476;51.448;6.674;2023-12-04T12:16:59;12.52;;;5.68;;
33104;SDS011;19476;51.448;6.674;2023-12-04T12:19:25;9.65;;;5.85;;
33104;SDS011;19476;51.448;6.674;2023-12-04T12:21:51;9.90;;;5.38;;
33104;SDS011;19476;51.448;6.674;2023-12-04T12:24:17;12.38;;;5.72;;
33104;SDS011;19476;51.448;6.674;2023-12-04T12:26:44;10.77;;;5.43;;
33104;SDS011;19476;51.448;6.674;2023-12-04T12:29:12;14.02;;;6.03;;
33104;SDS011;19476;51.448;6.674;2023-12-04T12:31:38;11.85;;;5.80;;
33104;SDS011;19476;51.448;6.674;2023-12-04T12:34:04;11.25;;;6.22;;
33104;SDS011;19476;51.448;6.674;2023-12-04T12:36:31;10.15;;;5.63;;
33104;SDS011;19476;51.448;6.674;2023-12-04T12:38:59;10.30;;;5.80;;
33104;SDS011;19476;51.448;6.674;2023-12-04T12:41:28;9.63;;;5.50;;
33104;SDS011;19476;51.448;6.674;2023-12-04T12:43:54;11.43;;;5.72;;
33104;SDS011;19476;51.448;6.674;2023-12-04T12:46:21;9.48;;;5.60;;
33104;SDS011;19476;51.448;6.674;2023-12-04T12:48:47;10.38;;;5.70;;
33104;SDS011;19476;51.448;6.674;2023-12-04T12:51:13;9.95;;;5.63;;
33104;SDS011;19476;51.448;6.674;2023-12-04T12:53:39;10.63;;;5.50;;
33104;SDS011;19476;51.448;6.674;2023-12-04T12:56:05;10.32;;;5.40;;
33104;SDS011;19476;51.448;6.674;2023-12-04T12:58:33;9.75;;;5.20;;
33104;SDS011;19476;51.448;6.674;2023-12-04T13:00:59;10.80;;;5.63;;
33104;SDS011;19476;51.448;6.674;2023-12-04T13:03:25;10.75;;;5.68;;
33104;SDS011;19476;51.448;6.674;2023-12-04T13:05:52;10.52;;;6.10;;
33104;SDS011;19476;51.448;6.674;2023-12-04T13:08:18;8.73;;;5.10;;
33104;SDS011;19476;51.448;6.674;2023-12-04T13:10:44;10.52;;;5.65;;
33104;SDS011;19476;51.448;6.674;2023-12-04T13:13:10;9.88;;;5.07;;
33104;SDS011;19476;51.448;6.674;2023-12-04T13:15:36;9.82;;;5.90;;
33104;SDS011;19476;51.448;6.674;2023-12-04T13:18:02;10.55;;;5.55;;
33104;SDS011;19476;51.448;6.674;2023-12-04T13:20:28;10.40;;;5.80;;
33104;SDS011;19476;51.448;6.674;2023-12-04T13:22:54;10.35;;;5.28;;
33104;SDS011;19476;51.448;6.674;2023-12-04T13:25:20;9.05;;;4.95;;
33104;SDS011;19476;51.448;6.674;2023-12-04T13:27:49;10.20;;;5.28;;
33104;SDS011;19476;51.448;6.674;2023-12-04T13:30:15;9.65;;;5.15;;
33104;SDS011;19476;51.448;6.674;2023-12-04T13:32:42;9.40;;;4.88;;
33104;SDS011;19476;51.448;6.674;2023-12-04T13:35:08;10.27;;;5.30;;
33104;SDS011;19476;51.448;6.674;2023-12-04T13:37:34;9.52;;;5.07;;
33104;SDS011;19476;51.448;6.674;2023-12-04T13:40:02;9.98;;;5.03;;
33104;SDS011;19476;51.448;6.674;2023-12-04T13:42:41;9.95;;;5.53;;
33104;SDS011;19476;51.448;6.674;2023-12-04T13:45:25;9.70;;;4.97;;
33104;SDS011;19476;51.448;6.674;2023-12-04T13:47:51;10.32;;;5.18;;
33104;SDS011;19476;51.448;6.674;2023-12-04T13:50:18;9.27;;;4.57;;
33104;SDS011;19476;51.448;6.674;2023-12-04T13:52:44;8.65;;;5.05;;
33104;SDS011;19476;51.448;6.674;2023-12-04T13:55:10;10.00;;;5.05;;
33104;SDS011;19476;51.448;6.674;2023-12-04T13:57:43;10.50;;;5.03;;
33104;SDS011;19476;51.448;6.674;2023-12-04T14:00:25;8.63;;;4.40;;
33104;SDS011;19476;51.448;6.674;2023-12-04T14:02:51;8.48;;;4.53;;
33104;SDS011;19476;51.448;6.674;2023-12-04T14:05:29;8.98;;;4.78;;
33104;SDS011;19476;51.448;6.674;2023-12-04T14:07:56;9.63;;;4.43;;
33104;SDS011;19476;51.448;6.674;2023-12-04T14:10:23;8.10;;;4.65;;
33104;SDS011;19476;51.448;6.674;2023-12-04T14:12:51;7.65;;;4.28;;
33104;SDS011;19476;51.448;6.674;2023-12-04T14:15:17;7.43;;;4.00;;
33104;SDS011;19476;51.448;6.674;2023-12-04T14:17:43;9.52;;;4.43;;
33104;SDS011;19476;51.448;6.674;2023-12-04T14:20:08;8.00;;;4.38;;
33104;SDS011;19476;51.448;6.674;2023-12-04T14:22:40;8.93;;;4.60;;
33104;SDS011;19476;51.448;6.674;2023-12-04T14:25:07;9.07;;;4.90;;
33104;SDS011;19476;51.448;6.674;2023-12-04T14:27:33;8.73;;;4.38;;
33104;SDS011;19476;51.448;6.674;2023-12-04T14:30:00;8.25;;;4.47;;
33104;SDS011;19476;51.448;6.674;2023-12-04T14:32:29;7.95;;;4.32;;
33104;SDS011;19476;51.448;6.674;2023-12-04T14:34:54;6.50;;;3.58;;
33104;SDS011;19476;51.448;6.674;2023-12-04T14:37:20;7.38;;;4.20;;